Terminal Aerodrome Forecast
Issued by NWS

Home | Current Version | Previous Version | Text Only | Print | Product List | Glossary On
Versions: 1 2 3 4 5 6 7 8 9 10 11 12 13 14 15 16 17
468
FTUS42 KTAE 051513 AAB
TAFDHN
TAF AMD
KDHN 051513Z 0515/0612 06003KT 5SM BR OVC003
      TEMPO 0515/0517 2SM BR
     FM051700 07005KT P6SM BKN007
     FM051900 08005KT 5SM RA OVC007
     FM052300 10005KT 3SM +TSRA OVC005CB=

USA.gov is the U.S. government's official web portal to all federal, state and local government web resources and services.